Time;durP1;ratioP1;P1;durP2;ratioP2;P2;SDS_P1;SDS_P2;PMS_P1;PMS_P2;Temp;Humidity;BMP_temperature;BMP_pressure;BME280_temperature;BME280_humidity;BME280_pressure;Samples;Min_cycle;Max_cycle;Signal;HPM_P1;HPM_P2
2022/03/14 00:01:15;;;;;;;3.95;2.30;;;;;;;;;;5094524;28;20024;-51
2022/03/14 00:03:53;;;;;;;4.00;2.72;;;;;;;;;;5094741;28;20042;-49
2022/03/14 00:06:20;;;;;;;3.45;2.70;;;;;;;;;;5095008;28;20024;-49
2022/03/14 00:08:46;;;;;;;3.65;2.50;;;;;;;;;;5094683;28;20020;-48
2022/03/14 00:11:16;;;;;;;6.03;2.42;;;;;;;;;;5094132;28;20174;-49
2022/03/14 00:13:46;;;;;;;3.45;2.45;;;;;;;;;;5094275;28;20094;-49
2022/03/14 00:16:20;;;;;;;3.30;2.22;;;;;;;;;;5093659;28;20520;-49
2022/03/14 00:18:48;;;;;;;2.60;1.90;;;;;;;;;;5094727;28;20036;-52
2022/03/14 00:21:15;;;;;;;2.95;1.92;;;;;;;;;;5094189;28;20103;-49
2022/03/14 00:23:41;;;;;;;2.70;2.10;;;;;;;;;;5094505;28;20027;-52
2022/03/14 00:26:07;;;;;;;3.45;2.13;;;;;;;;;;5093463;28;20034;-48
2022/03/14 00:28:33;;;;;;;2.80;2.40;;;;;;;;;;5094138;28;20020;-47
2022/03/14 00:31:00;;;;;;;2.30;1.75;;;;;;;;;;5093499;28;20035;-48
2022/03/14 00:33:26;;;;;;;3.63;2.05;;;;;;;;;;5094282;28;20112;-47
2022/03/14 00:35:55;;;;;;;3.70;2.00;;;;;;;;;;5075515;28;20094;-55
2022/03/14 00:38:21;;;;;;;3.25;2.53;;;;;;;;;;5094104;28;20100;-48
2022/03/14 00:40:47;;;;;;;3.95;2.45;;;;;;;;;;5093383;28;20496;-47
2022/03/14 00:43:13;;;;;;;5.07;2.53;;;;;;;;;;5093178;28;20066;-48
2022/03/14 00:45:39;;;;;;;3.83;2.97;;;;;;;;;;5094372;28;20032;-48
2022/03/14 00:48:05;;;;;;;4.13;2.72;;;;;;;;;;5093076;28;20036;-48
2022/03/14 00:50:31;;;;;;;3.55;2.30;;;;;;;;;;5094018;28;20416;-49
2022/03/14 00:52:57;;;;;;;3.97;2.45;;;;;;;;;;5093046;28;20035;-47
2022/03/14 00:55:23;;;;;;;3.22;2.33;;;;;;;;;;5093778;28;20077;-48
2022/03/14 00:57:49;;;;;;;3.42;2.42;;;;;;;;;;5093826;28;20103;-51
2022/03/14 01:00:15;;;;;;;3.15;2.25;;;;;;;;;;5093581;28;20389;-48
2022/03/14 01:02:41;;;;;;;4.20;2.55;;;;;;;;;;5094276;28;20024;-49
2022/03/14 01:05:07;;;;;;;3.60;2.70;;;;;;;;;;5093053;28;20028;-48
2022/03/14 01:07:34;;;;;;;4.28;2.65;;;;;;;;;;5093754;28;20028;-49
2022/03/14 01:10:00;;;;;;;4.13;2.70;;;;;;;;;;5092806;28;20020;-48
2022/03/14 01:12:26;;;;;;;3.58;2.33;;;;;;;;;;5093334;28;20073;-48
2022/03/14 01:14:52;;;;;;;3.63;2.38;;;;;;;;;;5092634;28;20423;-56
2022/03/14 01:17:18;;;;;;;3.75;2.92;;;;;;;;;;5093242;28;20084;-51
2022/03/14 01:19:44;;;;;;;3.90;2.50;;;;;;;;;;5093469;28;20024;-49
2022/03/14 01:22:10;;;;;;;4.05;2.10;;;;;;;;;;5092406;28;20031;-47
2022/03/14 01:24:38;;;;;;;3.83;2.60;;;;;;;;;;5093229;28;20028;-48
2022/03/14 01:27:05;;;;;;;3.53;2.53;;;;;;;;;;5092635;28;20027;-48
2022/03/14 01:29:31;;;;;;;4.05;2.55;;;;;;;;;;5093063;28;20024;-48
2022/03/14 01:31:58;;;;;;;3.67;2.70;;;;;;;;;;5092830;28;20376;-47
2022/03/14 01:34:24;;;;;;;3.42;2.47;;;;;;;;;;5093087;28;20116;-49
2022/03/14 01:36:50;;;;;;;3.63;2.55;;;;;;;;;;5093100;28;20035;-49
2022/03/14 01:39:16;;;;;;;4.05;2.90;;;;;;;;;;5092490;28;20032;-47
2022/03/14 01:41:43;;;;;;;4.22;2.97;;;;;;;;;;5093099;28;20422;-48
2022/03/14 01:44:09;;;;;;;3.28;2.78;;;;;;;;;;5084593;28;20458;-47
2022/03/14 01:46:35;;;;;;;3.58;2.47;;;;;;;;;;5072476;28;20036;-55
2022/03/14 01:49:01;;;;;;;3.10;2.38;;;;;;;;;;5071811;28;20020;-47
2022/03/14 01:51:27;;;;;;;2.97;2.30;;;;;;;;;;5072591;28;20025;-48
2022/03/14 01:53:54;;;;;;;3.05;2.30;;;;;;;;;;5071260;28;20035;-55
2022/03/14 01:56:21;;;;;;;2.85;2.42;;;;;;;;;;5072136;28;20462;-48
2022/03/14 01:58:47;;;;;;;4.50;2.53;;;;;;;;;;5072371;28;20107;-47
2022/03/14 02:01:13;;;;;;;3.58;2.70;;;;;;;;;;5071541;28;20566;-49
2022/03/14 02:03:40;;;;;;;3.33;2.70;;;;;;;;;;5054522;28;20024;-52
2022/03/14 02:06:06;;;;;;;3.95;2.90;;;;;;;;;;5071451;28;20064;-51
2022/03/14 02:08:34;;;;;;;3.75;2.65;;;;;;;;;;5072085;28;20485;-53
2022/03/14 02:11:00;;;;;;;3.55;2.45;;;;;;;;;;5071477;28;20016;-52
2022/03/14 02:13:26;;;;;;;3.58;2.70;;;;;;;;;;5072157;28;20091;-49
2022/03/14 02:15:52;;;;;;;3.55;2.45;;;;;;;;;;5071895;28;20141;-49
2022/03/14 02:18:18;;;;;;;3.08;2.42;;;;;;;;;;5071912;28;20031;-53
2022/03/14 02:20:45;;;;;;;3.33;2.45;;;;;;;;;;5072100;28;20096;-51
2022/03/14 02:23:11;;;;;;;3.72;2.30;;;;;;;;;;5071344;28;20446;-49
2022/03/14 02:25:46;;;;;;;4.20;2.97;;;;;;;;;;5072020;28;20032;-51
2022/03/14 02:28:13;;;;;;;4.13;2.92;;;;;;;;;;5071416;28;20043;-49
2022/03/14 02:30:39;;;;;;;3.08;2.35;;;;;;;;;;5053836;28;20409;-50
2022/03/14 02:33:07;;;;;;;4.68;2.67;;;;;;;;;;5071208;28;20017;-50
2022/03/14 02:35:35;;;;;;;3.08;2.15;;;;;;;;;;5071733;28;20358;-49
2022/03/14 02:38:01;;;;;;;7.28;2.58;;;;;;;;;;5071218;28;20024;-50
2022/03/14 02:40:27;;;;;;;4.63;2.58;;;;;;;;;;5071837;28;20053;-52
2022/03/14 02:42:54;;;;;;;3.92;2.65;;;;;;;;;;5071618;28;20029;-48
2022/03/14 02:45:20;;;;;;;2.90;2.50;;;;;;;;;;5088347;28;20016;-49
2022/03/14 02:47:46;;;;;;;3.22;2.55;;;;;;;;;;5092118;28;20063;-48
2022/03/14 02:50:12;;;;;;;3.08;2.40;;;;;;;;;;5091112;28;20016;-51
2022/03/14 02:52:38;;;;;;;3.10;2.50;;;;;;;;;;5091973;28;20024;-49
2022/03/14 02:55:05;;;;;;;3.42;2.33;;;;;;;;;;5091082;28;20103;-47
2022/03/14 02:57:31;;;;;;;3.85;2.40;;;;;;;;;;5091781;28;20469;-49
2022/03/14 02:59:57;;;;;;;3.08;2.30;;;;;;;;;;5091441;28;20039;-55
2022/03/14 03:02:25;;;;;;;3.17;2.53;;;;;;;;;;5091812;28;20020;-52
2022/03/14 03:04:51;;;;;;;4.40;2.85;;;;;;;;;;5094433;28;20369;-48
2022/03/14 03:07:20;;;;;;;4.38;2.40;;;;;;;;;;5095386;28;20516;-50
2022/03/14 03:09:47;;;;;;;3.00;2.33;;;;;;;;;;5096097;28;20438;-52
2022/03/14 03:12:13;;;;;;;2.50;2.15;;;;;;;;;;5095240;28;20032;-50
2022/03/14 03:14:40;;;;;;;3.22;2.20;;;;;;;;;;5095869;28;20032;-49
2022/03/14 03:17:06;;;;;;;2.85;2.15;;;;;;;;;;5095105;28;20585;-50
2022/03/14 03:19:32;;;;;;;4.38;2.38;;;;;;;;;;5096063;28;20103;-48
2022/03/14 03:21:59;;;;;;;3.13;2.30;;;;;;;;;;5094925;28;20042;-56
2022/03/14 03:24:25;;;;;;;3.60;2.40;;;;;;;;;;5095823;28;20032;-52
2022/03/14 03:26:51;;;;;;;3.03;2.47;;;;;;;;;;5095335;28;20054;-51
2022/03/14 03:29:17;;;;;;;3.30;2.28;;;;;;;;;;5094841;28;20032;-51
2022/03/14 03:31:43;;;;;;;3.08;2.22;;;;;;;;;;5095395;28;20017;-50
2022/03/14 03:34:08;;;;;;;2.60;2.10;;;;;;;;;;5094778;28;20028;-52
2022/03/14 03:36:35;;;;;;;2.83;2.15;;;;;;;;;;5095246;28;20023;-47
2022/03/14 03:39:01;;;;;;;2.65;2.10;;;;;;;;;;5094688;28;20055;-51
2022/03/14 03:41:27;;;;;;;2.47;1.77;;;;;;;;;;5077535;28;20063;-48
2022/03/14 03:43:53;;;;;;;2.55;2.10;;;;;;;;;;5072058;28;20071;-50
2022/03/14 03:46:19;;;;;;;3.50;2.13;;;;;;;;;;5074222;28;20016;-51
2022/03/14 03:48:45;;;;;;;3.75;2.67;;;;;;;;;;5074884;28;20040;-50
2022/03/14 03:51:11;;;;;;;2.10;1.80;;;;;;;;;;5074067;28;20020;-51
2022/03/14 03:53:37;;;;;;;2.97;2.20;;;;;;;;;;5074958;28;20032;-50
2022/03/14 03:56:03;;;;;;;3.65;2.05;;;;;;;;;;5073824;28;20024;-47
2022/03/14 03:58:31;;;;;;;3.70;2.60;;;;;;;;;;5074910;28;20075;-49
2022/03/14 04:00:57;;;;;;;3.03;2.28;;;;;;;;;;5074229;28;20363;-57
2022/03/14 04:03:23;;;;;;;3.15;1.85;;;;;;;;;;5073807;28;20028;-50
2022/03/14 04:05:49;;;;;;;3.00;1.75;;;;;;;;;;5056726;28;20523;-51
2022/03/14 04:08:16;;;;;;;2.80;2.13;;;;;;;;;;5056486;28;20470;-53
2022/03/14 04:10:43;;;;;;;2.58;2.00;;;;;;;;;;5074636;28;20113;-51
2022/03/14 04:13:10;;;;;;;2.30;2.10;;;;;;;;;;5073616;28;20035;-47
2022/03/14 04:15:54;;;;;;;1.95;1.80;;;;;;;;;;5073355;28;20493;-50
2022/03/14 04:18:26;;;;;;;3.40;2.38;;;;;;;;;;5073563;28;20024;-52
2022/03/14 04:20:52;;;;;;;;;;;;;;;;;;5074758;28;20466;-49
2022/03/14 04:23:19;;;;;;;2.92;2.08;;;;;;;;;;5073602;28;20564;-52
2022/03/14 04:25:46;;;;;;;2.63;2.10;;;;;;;;;;5074353;28;20016;-51
2022/03/14 04:28:12;;;;;;;2.55;1.88;;;;;;;;;;5073498;28;20016;-53
2022/03/14 04:30:38;;;;;;;2.38;1.60;;;;;;;;;;5074208;28;20047;-55
2022/03/14 04:33:04;;;;;;;3.08;2.05;;;;;;;;;;5073135;28;20032;-48
2022/03/14 04:35:30;;;;;;;3.15;2.00;;;;;;;;;;5074251;28;20024;-52
2022/03/14 04:37:57;;;;;;;2.42;1.70;;;;;;;;;;5074003;28;20054;-51
2022/03/14 04:40:23;;;;;;;5.63;1.70;;;;;;;;;;5073429;28;20024;-50
2022/03/14 04:42:49;;;;;;;2.28;1.65;;;;;;;;;;5073878;28;20025;-51
2022/03/14 04:45:15;;;;;;;2.05;1.85;;;;;;;;;;5089278;28;20028;-47
2022/03/14 04:47:41;;;;;;;4.85;2.00;;;;;;;;;;5093830;28;20480;-48
2022/03/14 04:50:07;;;;;;;4.00;2.20;;;;;;;;;;5093461;28;20038;-50
2022/03/14 04:52:33;;;;;;;2.88;1.80;;;;;;;;;;5093902;28;20049;-47
2022/03/14 04:54:59;;;;;;;2.45;1.90;;;;;;;;;;5093801;28;20020;-55
2022/03/14 04:57:26;;;;;;;2.55;1.67;;;;;;;;;;5093599;28;20016;-52
2022/03/14 04:59:52;;;;;;;2.28;1.90;;;;;;;;;;5093945;28;20020;-50
2022/03/14 05:02:22;;;;;;;3.08;2.00;;;;;;;;;;5093082;28;20082;-50
2022/03/14 05:04:48;;;;;;;2.45;1.58;;;;;;;;;;5093518;28;20024;-53
2022/03/14 05:07:14;;;;;;;2.75;1.65;;;;;;;;;;5092981;28;20031;-50
2022/03/14 05:09:40;;;;;;;2.47;2.03;;;;;;;;;;5093790;28;20020;-51
2022/03/14 05:12:07;;;;;;;3.22;1.77;;;;;;;;;;5092876;28;20024;-50
2022/03/14 05:14:34;;;;;;;1.95;1.70;;;;;;;;;;5093663;28;20353;-49
2022/03/14 05:17:00;;;;;;;2.40;2.00;;;;;;;;;;5092658;28;20063;-55
2022/03/14 05:19:26;;;;;;;2.53;1.95;;;;;;;;;;5074704;28;20028;-53
2022/03/14 05:21:52;;;;;;;2.53;1.70;;;;;;;;;;5093494;28;20035;-50
2022/03/14 05:24:18;;;;;;;1.83;1.30;;;;;;;;;;5092406;28;20059;-49
2022/03/14 05:26:47;;;;;;;4.28;2.20;;;;;;;;;;5092917;28;20469;-49
2022/03/14 05:29:14;;;;;;;1.77;1.45;;;;;;;;;;5092615;28;20027;-52
2022/03/14 05:31:40;;;;;;;2.35;1.60;;;;;;;;;;5093296;28;20027;-50
2022/03/14 05:34:07;;;;;;;2.15;1.50;;;;;;;;;;5092252;28;20057;-52
2022/03/14 05:36:33;;;;;;;2.05;1.50;;;;;;;;;;5093160;28;20106;-51
2022/03/14 05:38:59;;;;;;;2.17;1.65;;;;;;;;;;5092981;28;20024;-52
2022/03/14 05:41:26;;;;;;;2.33;1.50;;;;;;;;;;5092829;28;20027;-50
2022/03/14 05:43:52;;;;;;;1.73;1.33;;;;;;;;;;5092747;28;20112;-51
2022/03/14 05:46:18;;;;;;;2.15;1.40;;;;;;;;;;5091970;28;20063;-52
2022/03/14 05:48:44;;;;;;;2.58;1.98;;;;;;;;;;5074845;28;20338;-52
2022/03/14 05:51:10;;;;;;;2.35;1.40;;;;;;;;;;5091926;28;20016;-50
2022/03/14 05:53:36;;;;;;;1.73;1.20;;;;;;;;;;5092506;28;20080;-50
2022/03/14 05:56:02;;;;;;;1.40;1.27;;;;;;;;;;5092430;28;20113;-56
2022/03/14 05:58:28;;;;;;;1.98;1.38;;;;;;;;;;5092425;28;20500;-53
2022/03/14 06:00:54;;;;;;;2.50;1.13;;;;;;;;;;5092714;28;20024;-51
2022/03/14 06:03:21;;;;;;;1.85;1.30;;;;;;;;;;5091850;28;20038;-51
2022/03/14 06:05:48;;;;;;;2.67;1.40;;;;;;;;;;5092390;28;20024;-49
2022/03/14 06:08:14;;;;;;;2.45;1.52;;;;;;;;;;5091786;28;20020;-54
2022/03/14 06:10:40;;;;;;;2.17;1.50;;;;;;;;;;5092467;28;20024;-52
2022/03/14 06:13:07;;;;;;;2.25;1.30;;;;;;;;;;5091509;28;20063;-50
2022/03/14 06:15:33;;;;;;;2.20;0.98;;;;;;;;;;5092765;28;20101;-49
2022/03/14 06:17:59;;;;;;;1.50;1.08;;;;;;;;;;5096252;28;20028;-54
2022/03/14 06:20:25;;;;;;;2.10;1.38;;;;;;;;;;5091587;28;20024;-49
2022/03/14 06:22:51;;;;;;;1.80;1.00;;;;;;;;;;5092382;28;20070;-51
2022/03/14 06:25:18;;;;;;;1.10;0.95;;;;;;;;;;5091629;28;20024;-52
2022/03/14 06:27:44;;;;;;;1.88;1.02;;;;;;;;;;5093499;28;20071;-48
2022/03/14 06:30:11;;;;;;;1.75;1.10;;;;;;;;;;5091520;28;20031;-50
2022/03/14 06:32:38;;;;;;;1.50;1.00;;;;;;;;;;5092226;28;20027;-52
2022/03/14 06:35:08;;;;;;;2.78;0.90;;;;;;;;;;5091857;28;20028;-57
2022/03/14 06:37:34;;;;;;;1.00;0.80;;;;;;;;;;5092478;28;20114;-47
2022/03/14 06:40:00;;;;;;;2.03;0.95;;;;;;;;;;5091967;28;20031;-47
2022/03/14 06:42:26;;;;;;;1.35;0.77;;;;;;;;;;5091393;28;20035;-48
2022/03/14 06:44:53;;;;;;;0.80;0.73;;;;;;;;;;5078863;28;20029;-51
2022/03/14 06:47:19;;;;;;;2.92;1.10;;;;;;;;;;5071027;28;20525;-48
2022/03/14 06:49:46;;;;;;;1.42;0.80;;;;;;;;;;5071857;28;20052;-49
2022/03/14 06:52:12;;;;;;;2.33;0.90;;;;;;;;;;5070964;28;20024;-46
2022/03/14 06:54:38;;;;;;;1.45;0.80;;;;;;;;;;5071651;28;20029;-46
2022/03/14 06:57:05;;;;;;;1.65;1.05;;;;;;;;;;5071414;28;20031;-57
2022/03/14 06:59:31;;;;;;;2.33;0.90;;;;;;;;;;5071107;28;20480;-49
2022/03/14 07:01:57;;;;;;;2.65;0.93;;;;;;;;;;5071790;28;20025;-50
2022/03/14 07:04:23;;;;;;;1.65;1.17;;;;;;;;;;5070875;28;20148;-50
2022/03/14 07:06:49;;;;;;;2.33;0.90;;;;;;;;;;5053724;28;20108;-50
2022/03/14 07:09:15;;;;;;;1.52;1.00;;;;;;;;;;5070693;28;20509;-49
2022/03/14 07:11:41;;;;;;;2.60;0.88;;;;;;;;;;5071669;28;20054;-50
2022/03/14 07:14:08;;;;;;;1.45;0.82;;;;;;;;;;5073467;28;20400;-50
2022/03/14 07:16:34;;;;;;;1.83;1.05;;;;;;;;;;5078046;28;20053;-50
2022/03/14 07:19:00;;;;;;;3.00;0.88;;;;;;;;;;5069993;28;20075;-49
2022/03/14 07:21:29;;;;;;;1.58;0.90;;;;;;;;;;5068780;28;20098;-49
2022/03/14 07:23:57;;;;;;;2.72;0.90;;;;;;;;;;5070773;28;20028;-48
2022/03/14 07:26:24;;;;;;;4.18;1.30;;;;;;;;;;5087550;28;20070;-51
2022/03/14 07:28:50;;;;;;;2.88;1.20;;;;;;;;;;5089090;28;20069;-47
2022/03/14 07:31:17;;;;;;;2.70;1.42;;;;;;;;;;5089895;28;20058;-50
2022/03/14 07:33:43;;;;;;;1.90;0.80;;;;;;;;;;5089875;28;20067;-49
2022/03/14 07:36:10;;;;;;;5.57;1.10;;;;;;;;;;5089926;28;20370;-57
2022/03/14 07:38:36;;;;;;;1.67;1.10;;;;;;;;;;5090207;28;20094;-48
2022/03/14 07:41:02;;;;;;;1.80;0.88;;;;;;;;;;5090010;28;20183;-48
2022/03/14 07:43:27;;;;;;;2.95;0.90;;;;;;;;;;5088019;28;20103;-49
2022/03/14 07:45:53;;;;;;;2.55;1.00;;;;;;;;;;5070225;28;20029;-47
2022/03/14 07:48:20;;;;;;;1.67;0.80;;;;;;;;;;5068940;28;20028;-47
2022/03/14 07:50:46;;;;;;;4.15;1.30;;;;;;;;;;5071285;28;20032;-47
2022/03/14 07:53:13;;;;;;;4.07;1.17;;;;;;;;;;5072538;28;20094;-50
2022/03/14 07:55:39;;;;;;;1.70;0.73;;;;;;;;;;5073515;28;20533;-58
2022/03/14 07:58:05;;;;;;;3.13;1.33;;;;;;;;;;5093774;28;20469;-53
2022/03/14 08:00:31;;;;;;;2.67;1.00;;;;;;;;;;5092300;28;20044;-50
2022/03/14 08:02:57;;;;;;;2.13;1.02;;;;;;;;;;5093992;28;20024;-51
2022/03/14 08:05:26;;;;;;;4.18;1.08;;;;;;;;;;5092504;28;20035;-48
2022/03/14 08:07:53;;;;;;;6.57;1.80;;;;;;;;;;5092931;28;20032;-51
2022/03/14 08:10:19;;;;;;;2.80;1.35;;;;;;;;;;5093212;28;20035;-50
2022/03/14 08:12:48;;;;;;;3.13;0.80;;;;;;;;;;5092967;28;20027;-50
2022/03/14 08:15:19;;;;;;;1.45;0.70;;;;;;;;;;5091672;28;20030;-47
2022/03/14 08:17:45;;;;;;;1.70;0.95;;;;;;;;;;5094127;28;20112;-49
2022/03/14 08:20:11;;;;;;;1.20;0.80;;;;;;;;;;5088104;28;20024;-54
2022/03/14 08:22:37;;;;;;;2.55;1.00;;;;;;;;;;5073505;28;20017;-50
2022/03/14 08:25:03;;;;;;;2.97;0.90;;;;;;;;;;5072929;28;20393;-48
2022/03/14 08:27:29;;;;;;;1.98;0.80;;;;;;;;;;5071975;28;20016;-48
2022/03/14 08:29:55;;;;;;;1.42;0.70;;;;;;;;;;5073544;28;20366;-51
2022/03/14 08:32:24;;;;;;;3.90;1.13;;;;;;;;;;5071775;28;20527;-49
2022/03/14 08:34:51;;;;;;;0.95;0.77;;;;;;;;;;5072489;28;20036;-50
2022/03/14 08:37:17;;;;;;;5.63;0.75;;;;;;;;;;5081442;28;20433;-50
2022/03/14 08:39:43;;;;;;;2.08;0.63;;;;;;;;;;5092182;28;20027;-52
2022/03/14 08:42:09;;;;;;;1.52;1.00;;;;;;;;;;5074534;28;20493;-58
2022/03/14 08:44:35;;;;;;;2.25;0.73;;;;;;;;;;5088901;28;20032;-50
2022/03/14 08:47:03;;;;;;;4.18;1.35;;;;;;;;;;5092602;28;20040;-50
2022/03/14 08:49:29;;;;;;;3.22;0.85;;;;;;;;;;5092825;28;20025;-50
2022/03/14 08:51:55;;;;;;;5.85;1.25;;;;;;;;;;5092171;28;20017;-49
2022/03/14 08:54:21;;;;;;;2.30;0.70;;;;;;;;;;5086869;28;20028;-52
2022/03/14 08:56:47;;;;;;;3.50;1.60;;;;;;;;;;5093694;28;20036;-50
2022/03/14 08:59:13;;;;;;;4.07;0.90;;;;;;;;;;5093731;28;20028;-52
2022/03/14 09:01:39;;;;;;;2.63;0.88;;;;;;;;;;5093393;28;20072;-50
2022/03/14 09:04:06;;;;;;;2.67;1.15;;;;;;;;;;5093649;28;20028;-49
2022/03/14 09:06:35;;;;;;;1.45;0.73;;;;;;;;;;5093162;28;20094;-50
2022/03/14 09:09:01;;;;;;;1.02;0.50;;;;;;;;;;5093526;28;20479;-49
2022/03/14 09:11:27;;;;;;;2.05;0.65;;;;;;;;;;5092800;28;20024;-49
2022/03/14 09:13:53;;;;;;;1.45;0.82;;;;;;;;;;5092813;28;20485;-49
2022/03/14 09:16:20;;;;;;;2.13;0.80;;;;;;;;;;5092430;28;20472;-48
2022/03/14 09:18:46;;;;;;;1.17;0.85;;;;;;;;;;5093276;28;20120;-48
2022/03/14 09:21:14;;;;;;;5.68;1.25;;;;;;;;;;5092722;28;20465;-56
2022/03/14 09:23:40;;;;;;;1.90;0.68;;;;;;;;;;5093225;28;20034;-48
2022/03/14 09:26:06;;;;;;;1.42;0.50;;;;;;;;;;5093093;28;20032;-48
2022/03/14 09:28:32;;;;;;;5.65;1.38;;;;;;;;;;5092508;28;20806;-48
2022/03/14 09:30:58;;;;;;;2.72;0.70;;;;;;;;;;5075073;28;20016;-48
2022/03/14 09:33:25;;;;;;;1.02;0.55;;;;;;;;;;5092240;28;20461;-50
2022/03/14 09:35:51;;;;;;;2.05;1.10;;;;;;;;;;5092911;28;20021;-47
2022/03/14 09:38:17;;;;;;;1.17;0.82;;;;;;;;;;5092521;28;20024;-49
2022/03/14 09:40:47;;;;;;;1.45;0.95;;;;;;;;;;5093056;28;20465;-48
2022/03/14 09:43:16;;;;;;;2.67;0.90;;;;;;;;;;5091987;28;20449;-57
2022/03/14 09:45:45;;;;;;;2.78;0.85;;;;;;;;;;5072239;28;20500;-47
2022/03/14 09:48:11;;;;;;;2.20;0.98;;;;;;;;;;5072200;28;20381;-55
2022/03/14 09:50:41;;;;;;;3.00;0.77;;;;;;;;;;5072442;28;20028;-48
2022/03/14 09:53:09;;;;;;;1.52;0.70;;;;;;;;;;5072402;28;20382;-48
2022/03/14 09:55:41;;;;;;;3.28;0.82;;;;;;;;;;5071549;28;20027;-50
2022/03/14 09:58:08;;;;;;;1.17;0.70;;;;;;;;;;5072130;28;20033;-48
2022/03/14 10:00:35;;;;;;;4.47;1.27;;;;;;;;;;5071584;28;20021;-50
2022/03/14 10:03:02;;;;;;;2.92;1.00;;;;;;;;;;5054335;28;20032;-51
2022/03/14 10:05:28;;;;;;;2.70;0.70;;;;;;;;;;5071306;28;20409;-52
2022/03/14 10:07:54;;;;;;;2.05;0.73;;;;;;;;;;5072149;28;20017;-48
2022/03/14 10:10:20;;;;;;;1.60;0.73;;;;;;;;;;5071205;28;20021;-51
2022/03/14 10:12:52;;;;;;;1.30;0.55;;;;;;;;;;5077422;28;20028;-49
2022/03/14 10:15:19;;;;;;;1.83;0.75;;;;;;;;;;5091095;28;20031;-51
2022/03/14 10:17:45;;;;;;;1.73;0.80;;;;;;;;;;5092481;28;20024;-49
2022/03/14 10:20:12;;;;;;;1.10;0.50;;;;;;;;;;5091616;28;20017;-57
2022/03/14 10:22:39;;;;;;;2.50;0.63;;;;;;;;;;5091974;28;20032;-47
2022/03/14 10:25:09;;;;;;;1.88;0.75;;;;;;;;;;5092088;28;20028;-51
2022/03/14 10:27:37;;;;;;;2.40;0.80;;;;;;;;;;5073365;28;20085;-48
2022/03/14 10:30:03;;;;;;;1.08;0.55;;;;;;;;;;5092068;28;20016;-51
2022/03/14 10:32:30;;;;;;;1.55;0.68;;;;;;;;;;5091404;28;20031;-47
2022/03/14 10:35:01;;;;;;;2.95;0.73;;;;;;;;;;5092082;28;20039;-49
2022/03/14 10:37:29;;;;;;;2.40;0.98;;;;;;;;;;5091347;28;20105;-49
2022/03/14 10:40:06;;;;;;;2.63;0.70;;;;;;;;;;5092017;28;20016;-51
2022/03/14 10:42:39;;;;;;;1.42;0.60;;;;;;;;;;5090851;28;20016;-52
2022/03/14 10:45:10;;;;;;;1.58;0.60;;;;;;;;;;5076400;28;20040;-51
2022/03/14 10:47:37;;;;;;;1.00;0.50;;;;;;;;;;5071182;28;20032;-48
2022/03/14 10:50:03;;;;;;;1.40;0.70;;;;;;;;;;5071656;28;20040;-50
2022/03/14 10:52:29;;;;;;;0.77;0.52;;;;;;;;;;5070911;28;20397;-50
2022/03/14 10:54:56;;;;;;;0.85;0.75;;;;;;;;;;5071361;28;20264;-50
2022/03/14 10:57:25;;;;;;;0.80;0.60;;;;;;;;;;5070634;28;20470;-51
2022/03/14 10:59:52;;;;;;;1.15;0.65;;;;;;;;;;5071232;28;20025;-51
2022/03/14 11:02:20;;;;;;;4.45;1.58;;;;;;;;;;5070782;28;20023;-49
2022/03/14 11:04:53;;;;;;;3.15;0.80;;;;;;;;;;5071962;28;20531;-50
2022/03/14 11:07:20;;;;;;;1.30;0.50;;;;;;;;;;5070841;28;20020;-50
2022/03/14 11:09:50;;;;;;;1.50;0.60;;;;;;;;;;5071573;28;20075;-50
2022/03/14 11:12:17;;;;;;;1.65;0.60;;;;;;;;;;5072123;28;20024;-57
2022/03/14 11:14:51;;;;;;;2.00;0.63;;;;;;;;;;5091282;28;20123;-53
2022/03/14 11:17:20;;;;;;;1.10;0.50;;;;;;;;;;5090483;28;20048;-47
2022/03/14 11:19:47;;;;;;;0.77;0.57;;;;;;;;;;5091666;28;20476;-48
2022/03/14 11:22:14;;;;;;;1.05;0.60;;;;;;;;;;5091382;28;20390;-55
2022/03/14 11:24:44;;;;;;;1.85;0.70;;;;;;;;;;5079127;28;20023;-49
2022/03/14 11:27:11;;;;;;;1.20;0.77;;;;;;;;;;5076140;28;20054;-49
2022/03/14 11:29:37;;;;;;;1.45;0.80;;;;;;;;;;5075525;28;20090;-51
2022/03/14 11:32:04;;;;;;;1.10;0.70;;;;;;;;;;5074985;28;20529;-49
2022/03/14 11:34:31;;;;;;;4.95;0.73;;;;;;;;;;5074330;28;20120;-48
2022/03/14 11:36:58;;;;;;;2.85;0.75;;;;;;;;;;5074883;28;20527;-51
2022/03/14 11:39:27;;;;;;;1.48;0.63;;;;;;;;;;5074355;28;20056;-50
2022/03/14 11:41:54;;;;;;;1.23;0.85;;;;;;;;;;5074927;28;20066;-49
2022/03/14 11:44:21;;;;;;;1.27;0.40;;;;;;;;;;5056083;28;20074;-48
2022/03/14 11:46:47;;;;;;;0.88;0.43;;;;;;;;;;5074865;28;20105;-47
2022/03/14 11:49:17;;;;;;;0.70;0.68;;;;;;;;;;5075368;28;20025;-47
2022/03/14 11:51:43;;;;;;;1.58;0.77;;;;;;;;;;5074621;28;20029;-51
2022/03/14 11:54:11;;;;;;;2.65;0.70;;;;;;;;;;5074824;28;20029;-48
2022/03/14 11:56:38;;;;;;;1.98;0.50;;;;;;;;;;5073819;28;20016;-50
2022/03/14 11:59:08;;;;;;;1.10;0.77;;;;;;;;;;5074616;28;20024;-51
2022/03/14 12:01:34;;;;;;;1.33;0.70;;;;;;;;;;5073755;28;20031;-47
2022/03/14 12:04:06;;;;;;;1.35;0.50;;;;;;;;;;5074535;28;20029;-48
2022/03/14 12:06:47;;;;;;;2.45;0.70;;;;;;;;;;5073567;28;20481;-50
2022/03/14 12:09:25;;;;;;;0.70;0.40;;;;;;;;;;5074593;28;20074;-48
2022/03/14 12:11:55;;;;;;;1.33;0.80;;;;;;;;;;5074508;28;20035;-47
2022/03/14 12:14:44;;;;;;;1.08;0.82;;;;;;;;;;5072759;28;20040;-48
2022/03/14 12:17:13;;;;;;;0.68;0.63;;;;;;;;;;5056062;28;20493;-48
2022/03/14 12:19:42;;;;;;;1.83;0.60;;;;;;;;;;5073436;28;20155;-50
2022/03/14 12:22:12;;;;;;;2.05;0.45;;;;;;;;;;5074326;28;20096;-48
2022/03/14 12:24:38;;;;;;;0.77;0.50;;;;;;;;;;5073609;28;20150;-49
2022/03/14 12:27:18;;;;;;;2.03;0.80;;;;;;;;;;5074510;28;20517;-51
2022/03/14 12:29:45;;;;;;;1.73;0.70;;;;;;;;;;5073715;28;20104;-48
2022/03/14 12:32:29;;;;;;;1.67;0.52;;;;;;;;;;5074078;28;20052;-50
2022/03/14 12:35:01;;;;;;;1.70;0.75;;;;;;;;;;5074057;28;20058;-47
2022/03/14 12:37:52;;;;;;;2.03;0.65;;;;;;;;;;5072005;28;20467;-51
2022/03/14 12:40:21;;;;;;;1.55;0.50;;;;;;;;;;5064123;28;20036;-55
2022/03/14 12:42:47;;;;;;;3.40;0.70;;;;;;;;;;5073665;28;20099;-53
2022/03/14 12:45:36;;;;;;;1.30;0.50;;;;;;;;;;5089322;28;20117;-49
2022/03/14 12:48:12;;;;;;;2.75;0.60;;;;;;;;;;5094169;28;20035;-48
2022/03/14 12:50:51;;;;;;;1.58;0.52;;;;;;;;;;5093477;28;20027;-48
2022/03/14 12:53:18;;;;;;;2.00;0.98;;;;;;;;;;5093414;28;20031;-48
2022/03/14 12:55:45;;;;;;;0.95;0.57;;;;;;;;;;5093276;28;20103;-48
2022/03/14 12:58:13;;;;;;;2.53;0.80;;;;;;;;;;5093775;28;20020;-46
2022/03/14 13:00:39;;;;;;;1.80;0.75;;;;;;;;;;5092744;28;20105;-47
2022/03/14 13:03:06;;;;;;;0.93;0.47;;;;;;;;;;5093547;28;20052;-46
2022/03/14 13:05:32;;;;;;;1.30;0.68;;;;;;;;;;5092692;28;20465;-48
2022/03/14 13:08:02;;;;;;;0.82;0.50;;;;;;;;;;5093447;28;20031;-47
2022/03/14 13:10:38;;;;;;;0.95;0.52;;;;;;;;;;5092856;28;20016;-46
2022/03/14 13:13:04;;;;;;;0.63;0.43;;;;;;;;;;5066805;28;20023;-47
2022/03/14 13:15:30;;;;;;;1.50;0.65;;;;;;;;;;5072187;28;20088;-46
2022/03/14 13:17:56;;;;;;;1.17;0.60;;;;;;;;;;5073375;28;20077;-49
2022/03/14 13:20:26;;;;;;;0.93;0.60;;;;;;;;;;5072277;28;20095;-55
2022/03/14 13:22:53;;;;;;;1.38;0.60;;;;;;;;;;5073068;28;20017;-46
2022/03/14 13:25:31;;;;;;;1.75;0.88;;;;;;;;;;5073134;28;20461;-48
2022/03/14 13:27:57;;;;;;;1.80;0.70;;;;;;;;;;5072969;28;20025;-48
2022/03/14 13:30:23;;;;;;;1.15;0.50;;;;;;;;;;5072372;28;20378;-55
2022/03/14 13:32:49;;;;;;;0.70;0.40;;;;;;;;;;5072689;28;20020;-47
2022/03/14 13:35:16;;;;;;;1.92;0.60;;;;;;;;;;5072830;28;20035;-48
2022/03/14 13:37:45;;;;;;;1.05;0.47;;;;;;;;;;5071926;28;20008;-46
2022/03/14 13:40:21;;;;;;;0.32;0.30;;;;;;;;;;5072665;28;20021;-46
2022/03/14 13:42:48;;;;;;;0.77;0.50;;;;;;;;;;5078401;28;20100;-47
2022/03/14 13:45:14;;;;;;;1.15;0.52;;;;;;;;;;5076610;28;20377;-47
2022/03/14 13:47:40;;;;;;;0.80;0.40;;;;;;;;;;5071647;28;20086;-47
2022/03/14 13:50:06;;;;;;;1.25;0.40;;;;;;;;;;5072609;28;20052;-50
2022/03/14 13:52:32;;;;;;;0.93;0.47;;;;;;;;;;5064346;28;20086;-48
2022/03/14 13:54:59;;;;;;;0.68;0.40;;;;;;;;;;5054029;28;20040;-49
2022/03/14 13:57:25;;;;;;;0.50;0.40;;;;;;;;;;5073104;28;20024;-49
2022/03/14 13:59:52;;;;;;;1.50;0.43;;;;;;;;;;5071689;28;20032;-49
2022/03/14 14:02:21;;;;;;;1.65;0.40;;;;;;;;;;5084678;28;20024;-50
2022/03/14 14:04:49;;;;;;;0.40;0.30;;;;;;;;;;5091906;28;20093;-49
2022/03/14 14:07:21;;;;;;;0.70;0.40;;;;;;;;;;5085498;28;20035;-46
2022/03/14 14:09:49;;;;;;;1.00;0.50;;;;;;;;;;5092964;28;20075;-46
2022/03/14 14:12:21;;;;;;;3.35;0.82;;;;;;;;;;5092741;28;20026;-47
2022/03/14 14:14:48;;;;;;;2.40;0.55;;;;;;;;;;5091383;28;20058;-46
2022/03/14 14:17:21;;;;;;;2.10;0.80;;;;;;;;;;5091829;28;20172;-46
2022/03/14 14:20:02;;;;;;;4.50;0.60;;;;;;;;;;5091167;28;20042;-48
2022/03/14 14:22:29;;;;;;;1.30;0.63;;;;;;;;;;5091155;28;20039;-46
2022/03/14 14:24:55;;;;;;;5.93;1.27;;;;;;;;;;5091767;28;20027;-48
2022/03/14 14:27:26;;;;;;;1.27;0.70;;;;;;;;;;5091876;28;20020;-54
2022/03/14 14:29:59;;;;;;;0.95;0.55;;;;;;;;;;5091509;28;20020;-46
2022/03/14 14:32:25;;;;;;;1.40;0.40;;;;;;;;;;5090391;28;20020;-54
2022/03/14 14:34:52;;;;;;;1.80;0.50;;;;;;;;;;5091466;28;20035;-47
2022/03/14 14:37:18;;;;;;;1.00;0.60;;;;;;;;;;5091992;28;20089;-52
2022/03/14 14:39:44;;;;;;;2.05;1.40;;;;;;;;;;5090867;28;20647;-46
2022/03/14 14:42:12;;;;;;;1.02;0.50;;;;;;;;;;5091702;28;20020;-46
2022/03/14 14:44:38;;;;;;;1.67;0.43;;;;;;;;;;5079820;28;20056;-45